Time,TemperatureF,DewpointF,PressureIn,WindDirection,WindDirectionDegrees,WindSpeedMPH,WindSpeedGustMPH,Humidity,HourlyPrecipIn,Conditions,Clouds,dailyrainin,SoftwareType,DateUTC
2017-05-29 00:00:00,54.2,49.5,29.72,SSW,212,0.0,-999.0,84,0.00,,,0.00,Wunderground v.1.15,2017-05-29 05:00:00,
2017-05-29 00:10:00,53.7,49.3,29.73,SSW,212,0.0,-999.0,85,0.00,,,0.00,Wunderground v.1.15,2017-05-29 05:10:00,
2017-05-29 00:15:00,53.6,49.5,29.73,SSW,213,0.0,-999.0,86,0.00,,,0.00,Wunderground v.1.15,2017-05-29 05:15:00,
2017-05-29 00:25:00,53.5,49.4,29.73,SSW,212,0.0,-999.0,86,0.00,,,0.00,Wunderground v.1.15,2017-05-29 05:25:00,
2017-05-29 00:30:00,53.4,49.3,29.73,SSW,212,0.0,-999.0,86,0.00,,,0.00,Wunderground v.1.15,2017-05-29 05:30:00,
2017-05-29 00:35:00,53.5,49.4,29.73,SSW,212,0.0,-999.0,86,0.00,,,0.00,Wunderground v.1.15,2017-05-29 05:35:00,
2017-05-29 00:40:00,53.4,49.3,29.73,SSW,213,0.0,-999.0,86,0.00,,,0.00,Wunderground v.1.15,2017-05-29 05:40:00,
2017-05-29 00:45:00,53.6,49.5,29.73,SSW,212,0.0,-999.0,86,0.00,,,0.00,Wunderground v.1.15,2017-05-29 05:45:00,
2017-05-29 00:50:00,53.7,49.6,29.73,SSW,212,0.0,-999.0,86,0.00,,,0.00,Wunderground v.1.15,2017-05-29 05:50:00,
2017-05-29 01:00:00,55.4,50.6,29.73,SSW,210,0.0,-999.0,84,0.00,,,0.00,Wunderground v.1.15,2017-05-29 06:00:00,
2017-05-29 01:10:00,56.6,50.8,29.73,SSW,208,0.0,-999.0,81,0.00,,,0.00,Wunderground v.1.15,2017-05-29 06:10:00,
2017-05-29 01:15:00,57.4,51.3,29.73,SSW,207,0.0,-999.0,80,0.00,,,0.00,Wunderground v.1.15,2017-05-29 06:15:00,
2017-05-29 01:20:00,57.9,51.1,29.73,SW,218,0.0,-999.0,78,0.00,,,0.00,Wunderground v.1.15,2017-05-29 06:20:00,
2017-05-29 01:30:00,58.4,51.2,29.73,SSW,200,0.0,-999.0,77,0.00,,,0.00,Wunderground v.1.15,2017-05-29 06:30:00,
2017-05-29 01:35:00,58.6,51.1,29.73,SW,232,0.0,-999.0,76,0.00,,,0.00,Wunderground v.1.15,2017-05-29 06:35:00,
2017-05-29 01:45:00,58.8,50.9,29.74,South,188,0.0,-999.0,75,0.00,,,0.00,Wunderground v.1.15,2017-05-29 06:45:00,
2017-05-29 01:50:00,58.8,50.9,29.74,SW,214,0.0,-999.0,75,0.00,,,0.00,Wunderground v.1.15,2017-05-29 06:50:00,
2017-05-29 02:05:00,58.7,50.8,29.74,SSW,211,0.0,-999.0,75,0.00,,,0.00,Wunderground v.1.15,2017-05-29 07:05:00,
2017-05-29 02:15:00,58.6,50.7,29.74,SW,215,0.0,-999.0,75,0.00,,,0.00,Wunderground v.1.15,2017-05-29 07:15:00,
2017-05-29 02:20:00,58.6,50.7,29.73,SSW,207,0.0,-999.0,75,0.00,,,0.00,Wunderground v.1.15,2017-05-29 07:20:00,
2017-05-29 02:25:00,58.5,50.6,29.74,SSW,207,0.0,-999.0,75,0.00,,,0.00,Wunderground v.1.15,2017-05-29 07:25:00,
2017-05-29 02:35:00,58.0,50.5,29.74,SSW,200,0.0,-999.0,76,0.00,,,0.00,Wunderground v.1.15,2017-05-29 07:35:00,
2017-05-29 02:55:00,57.0,49.9,29.73,SSW,207,0.0,-999.0,77,0.00,,,0.00,Wunderground v.1.15,2017-05-29 07:55:00,
2017-05-29 03:00:00,56.9,50.1,29.73,SSW,210,0.0,-999.0,78,0.00,,,0.00,Wunderground v.1.15,2017-05-29 08:00:00,
2017-05-29 03:10:00,56.4,50.0,29.73,SW,218,0.0,-999.0,79,0.00,,,0.00,Wunderground v.1.15,2017-05-29 08:10:00,
2017-05-29 03:15:00,56.2,49.8,29.73,SW,218,0.0,-999.0,79,0.00,,,0.00,Wunderground v.1.15,2017-05-29 08:15:00,
2017-05-29 03:20:00,55.8,49.4,29.73,SW,218,0.0,-999.0,79,0.00,,,0.00,Wunderground v.1.15,2017-05-29 08:20:00,
2017-05-29 03:25:00,55.4,49.3,29.73,SSW,212,0.0,-999.0,80,0.00,,,0.00,Wunderground v.1.15,2017-05-29 08:25:00,
2017-05-29 03:30:00,55.2,49.5,29.73,SSW,212,0.0,-999.0,81,0.00,,,0.00,Wunderground v.1.15,2017-05-29 08:30:00,
2017-05-29 03:40:00,55.2,49.8,29.73,SSW,210,0.0,-999.0,82,0.00,,,0.00,Wunderground v.1.15,2017-05-29 08:40:00,
2017-05-29 03:45:00,55.5,49.8,29.73,SSW,212,0.0,-999.0,81,0.00,,,0.00,Wunderground v.1.15,2017-05-29 08:45:00,
2017-05-29 03:50:00,55.9,49.8,29.73,SW,215,0.0,-999.0,80,0.00,,,0.00,Wunderground v.1.15,2017-05-29 08:50:00,
2017-05-29 03:55:00,56.2,50.1,29.73,SSW,211,0.0,-999.0,80,0.00,,,0.00,Wunderground v.1.15,2017-05-29 08:55:00,
2017-05-29 04:10:00,56.5,50.1,29.73,SW,219,0.0,-999.0,79,0.00,,,0.00,Wunderground v.1.15,2017-05-29 09:10:00,
2017-05-29 04:30:00,56.2,50.1,29.73,SSW,210,0.0,-999.0,80,0.00,,,0.00,Wunderground v.1.15,2017-05-29 09:30:00,
2017-05-29 04:40:00,56.3,50.2,29.74,SSW,193,0.0,-999.0,80,0.00,,,0.00,Wunderground v.1.15,2017-05-29 09:40:00,
2017-05-29 04:45:00,56.6,50.2,29.73,SSW,198,1.0,-999.0,79,0.00,,,0.00,Wunderground v.1.15,2017-05-29 09:45:00,
2017-05-29 04:50:00,56.8,50.0,29.74,SSW,204,1.0,-999.0,78,0.00,,,0.00,Wunderground v.1.15,2017-05-29 09:50:00,
2017-05-29 04:55:00,57.1,50.3,29.74,SW,229,1.0,-999.0,78,0.00,,,0.00,Wunderground v.1.15,2017-05-29 09:55:00,
2017-05-29 05:20:00,57.6,50.4,29.74,SSW,212,1.0,-999.0,77,0.00,,,0.00,Wunderground v.1.15,2017-05-29 10:20:00,
2017-05-29 05:25:00,57.3,50.5,29.74,WSW,256,0.0,-999.0,78,0.00,,,0.00,Wunderground v.1.15,2017-05-29 10:25:00,
2017-05-29 05:45:00,57.6,50.8,29.75,SW,236,1.0,-999.0,78,0.00,,,0.00,Wunderground v.1.15,2017-05-29 10:45:00,
2017-05-29 05:50:00,57.8,51.0,29.75,South,189,1.0,-999.0,78,0.00,,,0.00,Wunderground v.1.15,2017-05-29 10:50:00,
2017-05-29 05:55:00,58.4,51.2,29.75,SSW,193,1.0,-999.0,77,0.00,,,0.00,Wunderground v.1.15,2017-05-29 10:55:00,
2017-05-29 06:00:00,59.1,51.5,29.75,SW,218,2.0,-999.0,76,0.00,,,0.00,Wunderground v.1.15,2017-05-29 11:00:00,
2017-05-29 06:10:00,60.2,51.9,29.75,SW,226,2.0,-999.0,74,0.00,,,0.00,Wunderground v.1.15,2017-05-29 11:10:00,
2017-05-29 06:15:00,60.7,52.0,29.76,SW,224,1.0,-999.0,73,0.00,,,0.00,Wunderground v.1.15,2017-05-29 11:15:00,
2017-05-29 06:30:00,61.9,52.4,29.75,WSW,242,1.0,-999.0,71,0.00,,,0.00,Wunderground v.1.15,2017-05-29 11:30:00,
2017-05-29 06:35:00,62.2,52.7,29.75,SSW,198,0.0,-999.0,71,0.00,,,0.00,Wunderground v.1.15,2017-05-29 11:35:00,
2017-05-29 06:45:00,62.3,52.4,29.76,SSW,200,1.0,-999.0,70,0.00,,,0.00,Wunderground v.1.15,2017-05-29 11:45:00,
2017-05-29 06:55:00,62.7,52.4,29.76,SSW,207,2.0,-999.0,69,0.00,,,0.00,Wunderground v.1.15,2017-05-29 11:55:00,
2017-05-29 07:00:00,62.7,52.0,29.76,SW,236,2.0,-999.0,68,0.00,,,0.00,Wunderground v.1.15,2017-05-29 12:00:00,
2017-05-29 07:10:00,62.9,52.2,29.75,WSW,248,2.0,-999.0,68,0.00,,,0.00,Wunderground v.1.15,2017-05-29 12:10:00,
2017-05-29 07:15:00,63.0,51.9,29.75,SSW,210,1.0,-999.0,67,0.00,,,0.00,Wunderground v.1.15,2017-05-29 12:15:00,
2017-05-29 07:20:00,63.3,51.7,29.75,WSW,245,1.0,-999.0,66,0.00,,,0.00,Wunderground v.1.15,2017-05-29 12:20:00,
2017-05-29 07:30:00,63.7,51.7,29.75,SSW,197,2.0,-999.0,65,0.00,,,0.00,Wunderground v.1.15,2017-05-29 12:30:00,
2017-05-29 07:35:00,63.9,51.5,29.75,SW,224,2.0,-999.0,64,0.00,,,0.00,Wunderground v.1.15,2017-05-29 12:35:00,
2017-05-29 07:40:00,64.3,51.9,29.75,WSW,240,2.0,-999.0,64,0.00,,,0.00,Wunderground v.1.15,2017-05-29 12:40:00,
2017-05-29 07:45:00,64.6,52.1,29.75,SSW,197,1.0,-999.0,64,0.00,,,0.00,Wunderground v.1.15,2017-05-29 12:45:00,
2017-05-29 07:50:00,64.8,51.9,29.75,SSW,200,1.0,-999.0,63,0.00,,,0.00,Wunderground v.1.15,2017-05-29 12:50:00,
2017-05-29 08:00:00,65.0,52.1,29.75,WSW,256,2.0,-999.0,63,0.00,,,0.00,Wunderground v.1.15,2017-05-29 13:00:00,
2017-05-29 08:10:00,65.2,52.3,29.75,NW,325,2.0,-999.0,63,0.00,,,0.00,Wunderground v.1.15,2017-05-29 13:10:00,
2017-05-29 08:15:00,65.2,52.3,29.75,WNW,296,3.0,-999.0,63,0.00,,,0.00,Wunderground v.1.15,2017-05-29 13:15:00,
2017-05-29 08:20:00,65.3,52.4,29.75,South,170,2.0,-999.0,63,0.00,,,0.00,Wunderground v.1.15,2017-05-29 13:20:00,
2017-05-29 08:25:00,65.5,52.1,29.75,West,266,2.0,-999.0,62,0.00,,,0.00,Wunderground v.1.15,2017-05-29 13:25:00,
2017-05-29 08:35:00,66.2,51.9,29.75,SW,215,2.0,-999.0,60,0.00,,,0.00,Wunderground v.1.15,2017-05-29 13:35:00,
2017-05-29 08:40:00,66.6,52.7,29.76,WSW,250,2.0,-999.0,61,0.00,,,0.00,Wunderground v.1.15,2017-05-29 13:40:00,
2017-05-29 08:45:00,66.9,52.1,29.76,SSW,197,2.0,-999.0,59,0.00,,,0.00,Wunderground v.1.15,2017-05-29 13:45:00,
2017-05-29 08:50:00,67.2,51.9,29.76,WNW,288,3.0,-999.0,58,0.00,,,0.00,Wunderground v.1.15,2017-05-29 13:50:00,
2017-05-29 08:55:00,67.4,51.6,29.76,WNW,295,3.0,-999.0,57,0.00,,,0.00,Wunderground v.1.15,2017-05-29 13:55:00,
2017-05-29 09:00:00,67.7,51.4,29.76,West,262,4.0,-999.0,56,0.00,,,0.00,Wunderground v.1.15,2017-05-29 14:00:00,
2017-05-29 09:10:00,68.4,51.1,29.76,WSW,242,3.0,-999.0,54,0.00,,,0.00,Wunderground v.1.15,2017-05-29 14:10:00,
2017-05-29 09:15:00,68.6,50.8,29.76,West,262,4.0,-999.0,53,0.00,,,0.00,Wunderground v.1.15,2017-05-29 14:15:00,
2017-05-29 09:20:00,68.9,50.5,29.76,SSW,203,4.0,-999.0,52,0.00,,,0.00,Wunderground v.1.15,2017-05-29 14:20:00,
2017-05-29 09:30:00,69.6,51.2,29.76,South,190,3.0,-999.0,52,0.00,,,0.00,Wunderground v.1.15,2017-05-29 14:30:00,
2017-05-29 09:40:00,70.0,50.0,29.76,NW,305,3.0,-999.0,49,0.00,,,0.00,Wunderground v.1.15,2017-05-29 14:40:00,
2017-05-29 09:45:00,70.3,50.8,29.76,NNW,340,3.0,-999.0,50,0.00,,,0.00,Wunderground v.1.15,2017-05-29 14:45:00,
2017-05-29 09:50:00,70.2,50.1,29.76,South,187,5.0,-999.0,49,0.00,,,0.00,Wunderground v.1.15,2017-05-29 14:50:00,
2017-05-29 11:15:00,72.7,51.3,29.76,NW,311,5.0,-999.0,47,0.00,,,0.00,Wunderground v.1.15,2017-05-29 16:15:00,
2017-05-29 11:20:00,73.2,52.9,29.76,SSW,194,5.0,-999.0,49,0.00,,,0.00,Wunderground v.1.15,2017-05-29 16:20:00,
2017-05-29 11:25:00,73.0,47.2,29.77,SSW,197,6.0,-999.0,40,0.00,,,0.00,Wunderground v.1.15,2017-05-29 16:25:00,
2017-05-29 11:30:00,72.8,47.7,29.77,SSW,201,7.0,-999.0,41,0.00,,,0.00,Wunderground v.1.15,2017-05-29 16:30:00,
2017-05-29 11:35:00,72.9,47.8,29.77,WSW,256,6.0,-999.0,41,0.00,,,0.00,Wunderground v.1.15,2017-05-29 16:35:00,
2017-05-29 11:40:00,72.9,47.8,29.77,WSW,252,7.0,-999.0,41,0.00,,,0.00,Wunderground v.1.15,2017-05-29 16:40:00,
2017-05-29 11:50:00,73.1,46.7,29.77,NNW,329,7.0,-999.0,39,0.00,,,0.00,Wunderground v.1.15,2017-05-29 16:50:00,
2017-05-29 11:55:00,73.2,47.4,29.76,SSW,198,8.0,-999.0,40,0.00,,,0.00,Wunderground v.1.15,2017-05-29 16:55:00,
2017-05-29 12:00:00,73.1,48.6,29.77,SSW,207,8.0,-999.0,42,0.00,,,0.00,Wunderground v.1.15,2017-05-29 17:00:00,
2017-05-29 12:10:00,73.8,49.9,29.77,West,262,5.0,-999.0,43,0.00,,,0.00,Wunderground v.1.15,2017-05-29 17:10:00,
2017-05-29 12:15:00,74.1,50.2,29.77,WNW,298,4.0,-999.0,43,0.00,,,0.00,Wunderground v.1.15,2017-05-29 17:15:00,
2017-05-29 12:25:00,73.5,50.2,29.77,South,177,5.0,-999.0,44,0.00,,,0.00,Wunderground v.1.15,2017-05-29 17:25:00,
2017-05-29 12:30:00,73.5,49.6,29.77,SSW,201,5.0,-999.0,43,0.00,,,0.00,Wunderground v.1.15,2017-05-29 17:30:00,
2017-05-29 12:35:00,73.1,49.3,29.78,WNW,299,5.0,-999.0,43,0.00,,,0.00,Wunderground v.1.15,2017-05-29 17:35:00,
2017-05-29 12:45:00,73.3,49.4,29.78,West,263,5.0,-999.0,43,0.00,,,0.00,Wunderground v.1.15,2017-05-29 17:45:00,
2017-05-29 12:50:00,73.1,50.5,29.78,South,186,5.0,-999.0,45,0.00,,,0.00,Wunderground v.1.15,2017-05-29 17:50:00,
2017-05-29 13:00:00,72.9,48.5,29.78,South,190,6.0,-999.0,42,0.00,,,0.00,Wunderground v.1.15,2017-05-29 18:00:00,
2017-05-29 13:10:00,72.9,49.1,29.79,West,267,6.0,-999.0,43,0.00,,,0.00,Wunderground v.1.15,2017-05-29 18:10:00,
2017-05-29 13:15:00,73.1,49.3,29.79,WNW,285,5.0,-999.0,43,0.00,,,0.00,Wunderground v.1.15,2017-05-29 18:15:00,
2017-05-29 13:20:00,73.0,50.4,29.79,SSW,199,5.0,-999.0,45,0.00,,,0.00,Wunderground v.1.15,2017-05-29 18:20:00,
2017-05-29 13:30:00,72.9,50.9,29.79,West,269,5.0,-999.0,46,0.00,,,0.00,Wunderground v.1.15,2017-05-29 18:30:00,
2017-05-29 13:35:00,73.1,51.1,29.79,West,273,4.0,-999.0,46,0.00,,,0.00,Wunderground v.1.15,2017-05-29 18:35:00,
2017-05-29 13:40:00,73.2,51.8,29.79,SSW,204,4.0,-999.0,47,0.00,,,0.00,Wunderground v.1.15,2017-05-29 18:40:00,
2017-05-29 13:45:00,73.3,51.3,29.79,SW,232,4.0,-999.0,46,0.00,,,0.00,Wunderground v.1.15,2017-05-29 18:45:00,
2017-05-29 13:50:00,73.4,51.9,29.80,WSW,256,4.0,-999.0,47,0.00,,,0.00,Wunderground v.1.15,2017-05-29 18:50:00,
2017-05-29 13:55:00,73.5,51.4,29.79,NNW,328,4.0,-999.0,46,0.00,,,0.00,Wunderground v.1.15,2017-05-29 18:55:00,
2017-05-29 14:00:00,73.0,50.4,29.79,SW,217,4.0,-999.0,45,0.00,,,0.00,Wunderground v.1.15,2017-05-29 19:00:00,
2017-05-29 14:10:00,72.9,51.5,29.80,WNW,284,5.0,-999.0,47,0.00,,,0.00,Wunderground v.1.15,2017-05-29 19:10:00,
2017-05-29 14:15:00,72.9,52.1,29.80,NNW,341,5.0,-999.0,48,0.00,,,0.00,Wunderground v.1.15,2017-05-29 19:15:00,
2017-05-29 14:20:00,72.8,52.0,29.80,WNW,283,5.0,-999.0,48,0.00,,,0.00,Wunderground v.1.15,2017-05-29 19:20:00,
2017-05-29 14:25:00,72.8,50.8,29.80,SW,231,5.0,-999.0,46,0.00,,,0.00,Wunderground v.1.15,2017-05-29 19:25:00,
2017-05-29 14:30:00,72.9,50.9,29.80,SSW,200,4.0,-999.0,46,0.00,,,0.00,Wunderground v.1.15,2017-05-29 19:30:00,
2017-05-29 14:35:00,73.5,52.6,29.80,South,186,3.0,-999.0,48,0.00,,,0.00,Wunderground v.1.15,2017-05-29 19:35:00,
2017-05-29 14:40:00,73.5,51.4,29.79,SW,229,3.0,-999.0,46,0.00,,,0.00,Wunderground v.1.15,2017-05-29 19:40:00,
2017-05-29 14:45:00,73.0,51.6,29.79,WNW,283,4.0,-999.0,47,0.00,,,0.00,Wunderground v.1.15,2017-05-29 19:45:00,
2017-05-29 14:50:00,73.1,52.8,29.80,West,277,4.0,-999.0,49,0.00,,,0.00,Wunderground v.1.15,2017-05-29 19:50:00,
2017-05-29 14:55:00,73.0,50.4,29.80,WNW,288,5.0,-999.0,45,0.00,,,0.00,Wunderground v.1.15,2017-05-29 19:55:00,
2017-05-29 15:00:00,73.1,51.7,29.79,SW,216,5.0,-999.0,47,0.00,,,0.00,Wunderground v.1.15,2017-05-29 20:00:00,
2017-05-29 15:10:00,73.5,51.4,29.79,WSW,249,4.0,-999.0,46,0.00,,,0.00,Wunderground v.1.15,2017-05-29 20:10:00,
2017-05-29 15:15:00,73.4,51.4,29.79,SE,129,5.0,-999.0,46,0.00,,,0.00,Wunderground v.1.15,2017-05-29 20:15:00,
2017-05-29 15:20:00,73.0,51.6,29.79,NW,322,5.0,-999.0,47,0.00,,,0.00,Wunderground v.1.15,2017-05-29 20:20:00,
2017-05-29 15:25:00,73.1,52.2,29.79,WNW,297,4.0,-999.0,48,0.00,,,0.00,Wunderground v.1.15,2017-05-29 20:25:00,
2017-05-29 15:30:00,73.3,51.3,29.79,WNW,295,4.0,-999.0,46,0.00,,,0.00,Wunderground v.1.15,2017-05-29 20:30:00,
2017-05-29 15:35:00,73.1,51.1,29.79,SSW,194,4.0,-999.0,46,0.00,,,0.00,Wunderground v.1.15,2017-05-29 20:35:00,
2017-05-29 15:45:00,73.3,51.8,29.78,South,174,4.0,-999.0,47,0.00,,,0.00,Wunderground v.1.15,2017-05-29 20:45:00,
2017-05-29 15:50:00,72.9,50.3,29.79,West,279,4.0,-999.0,45,0.00,,,0.00,Wunderground v.1.15,2017-05-29 20:50:00,
2017-05-29 15:55:00,72.6,51.2,29.79,SSW,210,4.0,-999.0,47,0.00,,,0.00,Wunderground v.1.15,2017-05-29 20:55:00,
2017-05-29 16:00:00,72.4,51.0,29.79,SW,231,3.0,-999.0,47,0.00,,,0.00,Wunderground v.1.15,2017-05-29 21:00:00,
2017-05-29 16:10:00,72.2,50.3,29.80,WNW,285,3.0,-999.0,46,0.00,,,0.00,Wunderground v.1.15,2017-05-29 21:10:00,
2017-05-29 16:15:00,71.4,49.5,29.80,SSE,155,4.0,-999.0,46,0.00,,,0.00,Wunderground v.1.15,2017-05-29 21:15:00,
2017-05-29 16:20:00,71.5,49.6,29.80,SW,235,4.0,-999.0,46,0.00,,,0.00,Wunderground v.1.15,2017-05-29 21:20:00,
2017-05-29 16:25:00,72.3,50.4,29.80,WSW,237,4.0,-999.0,46,0.00,,,0.00,Wunderground v.1.15,2017-05-29 21:25:00,
2017-05-29 16:30:00,72.6,50.0,29.80,SSW,207,4.0,-999.0,45,0.00,,,0.00,Wunderground v.1.15,2017-05-29 21:30:00,
2017-05-29 16:40:00,72.5,49.3,29.80,SSW,212,4.0,-999.0,44,0.00,,,0.00,Wunderground v.1.15,2017-05-29 21:40:00,
2017-05-29 16:50:00,72.7,49.5,29.80,WNW,288,4.0,-999.0,44,0.00,,,0.00,Wunderground v.1.15,2017-05-29 21:50:00,
2017-05-29 16:55:00,72.5,49.3,29.80,SSW,194,4.0,-999.0,44,0.00,,,0.00,Wunderground v.1.15,2017-05-29 21:55:00,
2017-05-29 17:00:00,72.1,50.2,29.80,South,188,3.0,-999.0,46,0.00,,,0.00,Wunderground v.1.15,2017-05-29 22:00:00,
2017-05-29 17:10:00,71.7,49.2,29.80,NE,39,3.0,-999.0,45,0.00,,,0.00,Wunderground v.1.15,2017-05-29 22:10:00,
2017-05-29 17:15:00,71.6,49.7,29.80,West,273,3.0,-999.0,46,0.00,,,0.00,Wunderground v.1.15,2017-05-29 22:15:00,
2017-05-29 17:20:00,71.9,50.6,29.80,WNW,294,3.0,-999.0,47,0.00,,,0.00,Wunderground v.1.15,2017-05-29 22:20:00,
2017-05-29 17:25:00,72.2,49.7,29.80,WSW,254,3.0,-999.0,45,0.00,,,0.00,Wunderground v.1.15,2017-05-29 22:25:00,
2017-05-29 17:30:00,71.1,49.3,29.80,NNW,347,3.0,-999.0,46,0.00,,,0.00,Wunderground v.1.15,2017-05-29 22:30:00,
2017-05-29 17:40:00,71.2,49.9,29.81,South,187,2.0,-999.0,47,0.00,,,0.00,Wunderground v.1.15,2017-05-29 22:40:00,
2017-05-29 17:45:00,71.6,50.3,29.81,WNW,288,3.0,-999.0,47,0.00,,,0.00,Wunderground v.1.15,2017-05-29 22:45:00,
2017-05-29 17:55:00,71.5,49.6,29.81,West,270,3.0,-999.0,46,0.00,,,0.00,Wunderground v.1.15,2017-05-29 22:55:00,
2017-05-29 18:00:00,70.7,49.5,29.81,WNW,297,3.0,-999.0,47,0.00,,,0.00,Wunderground v.1.15,2017-05-29 23:00:00,
2017-05-29 18:10:00,70.0,49.4,29.81,SSW,210,2.0,-999.0,48,0.00,,,0.00,Wunderground v.1.15,2017-05-29 23:10:00,